Kushiro Airport
RJCK : now visible

Airfield :











YOU CAN JOIN US ON...

 
LOGIN :

Register | Disclaimer

   EN    FR    IT 

 









Legend :    VFR   Marginal VFR   IFR   Intensive IFR   Very Intensive IFR
Visi :
Ceiling :
>= 8 km
>= 3000ft
5 to 8 km
1000 to 3000 ft
1500m to 5 km
500 to 1000 ft
800 to 1500m
200 to 500 ft
< 800m
< 200 ft
Symbols :   Thunderstorms  Fog  Heavy snow  Heavy precipitations  Wind > 20 kt







- Airport Elevation : 327 ft
- IATA code : KUH


RJCK - Kushiro

METAR N/A
TAF TAF RJCK
Valid from the 21 at 18:00 until the 23 at 00:00 UTC


211714Z 2118/2300 35005KT 8000 FEW003 BKN015
TEMPO 2118/2121 0700 FG VV001
TEMPO 2121/2123 3000 BR FEW002 BKN005
BECMG 2122/2200 17010KT
BECMG 2206/2209 33004KT
BECMG 2218/2221 21005KT
RJJJ FIR / Asia



MET'MAP, your aeronautical weather chart ! - Copyright ORBIFLY December 2007 - Disclaimer

ORBIFLY MET'MAP TEAM :

Programming & Development : Alexandra Zaïnal
Concept & Development : Baudouin d'Aumeries
Co-Development & Prog : Marc-Olivier Méhu
Technical & hardware support : Manuel Goepfert

Contact : metmap@orbifly.com




SOURCES & CREDITS :

   NOAA       Earth
Advisory